Stations météo

réclame
Mon MeteoGroup
Ferrara, Italie (16133): Température de l'air & dewpoint: 17.05.2018 22:00:00 - 23.05.2018 22:00:00 (CEST)Ferrara, Italie (16133): Vitesse du vent: 17.05.2018 22:00:00 - 23.05.2018 22:00:00 (CEST)Ferrara, Italie (16133): Direction du vent: 17.05.2018 22:00:00 - 23.05.2018 22:00:00 (CEST)Ferrara, Italie (16133): reduced air pressure: 17.05.2018 22:00:00 - 23.05.2018 22:00:00 (CEST)Ferrara, Italie (16133): Quantités de précipitations: 17.05.2018 22:00:00 - 23.05.2018 22:00:00 (CEST)
Date & Time tt [°C] td [°C] ff [km/h] ff [knt] dd ppp [hPa] rr [mm]
23.05.2018 22:00:00 18,9 15,7 2 1 SSW 1017,1 -
23.05.2018 21:00:00 19,9 14,8 0 0 N 1016,5 -
23.05.2018 20:00:00 21,1 14,4 5 3 NW 1015,9 0,0
23.05.2018 19:00:00 20,8 15,0 2 1 SSW 1015,6 -
23.05.2018 18:00:00 21,3 14,8 4 2 NE 1016,0 -
23.05.2018 17:00:00 20,8 15,3 2 1 WNW 1016,1 -
23.05.2018 16:00:00 19,8 16,4 2 1 SW 1016,4 -
23.05.2018 15:00:00 18,6 16,3 2 1 WNW 1017,0 -
23.05.2018 14:00:00 17,5 14,9 2 1 SW 1017,3 0,0
23.05.2018 13:00:00 19,6 15,6 4 2 NNE 1017,2 -
23.05.2018 12:00:00 18,9 16,4 4 2 N 1017,1 -
23.05.2018 11:00:00 18,7 17,0 5 3 NW 1016,8 -
23.05.2018 10:00:00 17,2 15,5 2 1 NNE 1017,1 -
23.05.2018 09:00:00 16,2 14,5 2 1 W 1016,8 -
23.05.2018 08:00:00 15,7 14,0 0 0 N 1016,6 0,0
23.05.2018 07:00:00 15,4 13,7 0 0 N 1016,1 -
23.05.2018 06:00:00 14,7 13,0 - - - 1015,8 -
23.05.2018 05:00:00 15,3 13,6 - - - 1015,6 -
23.05.2018 04:00:00 15,4 13,7 - - - 1015,5 -
23.05.2018 03:00:00 15,1 13,4 - - - 1015,7 -
23.05.2018 02:00:00 14,9 13,2 - - - 1015,7 0,0
23.05.2018 01:00:00 15,0 13,3 - - - 1015,8 -
23.05.2018 00:00:00 15,6 13,9 - - - 1015,9 -
22.05.2018 23:00:00 16,2 14,5 - - - 1016,2 -
22.05.2018 22:00:00 16,5 14,8 - - - 1015,8 -
22.05.2018 21:00:00 16,8 15,1 - - - 1015,1 -
22.05.2018 20:00:00 17,2 15,5 2 1 SE 1014,8 0,0
22.05.2018 19:00:00 17,7 16,0 - - - 1014,4 -
22.05.2018 18:00:00 18,5 16,4 4 2 NW 1014,4 -
22.05.2018 17:00:00 18,5 16,8 4 2 E 1014,4 -
22.05.2018 16:00:00 18,1 15,3 4 2 NE 1014,2 -
22.05.2018 15:00:00 18,4 15,8 2 1 WNW 1014,6 -
22.05.2018 14:00:00 18,2 16,5 5 3 W 1014,3 0,0
22.05.2018 13:00:00 17,0 15,3 4 2 NW 1014,6 -
22.05.2018 12:00:00 15,8 14,1 - - - 1014,3 -
22.05.2018 11:00:00 15,6 13,9 - - - 1014,2 -
22.05.2018 10:00:00 15,4 13,7 - - - 1014,0 -
22.05.2018 09:00:00 15,2 13,5 - - - 1013,7 -
22.05.2018 08:00:00 14,9 13,2 - - - 1013,3 0,0
22.05.2018 07:00:00 14,6 12,9 - - - 1012,7 -
22.05.2018 06:00:00 14,6 12,9 - - - 1012,6 -
22.05.2018 05:00:00 14,9 13,2 - - - 1012,7 -
22.05.2018 04:00:00 15,1 13,4 - - - 1012,6 -
22.05.2018 03:00:00 15,4 13,7 - - - 1012,6 -
22.05.2018 02:00:00 16,3 13,5 - - - 1012,7 0,0
22.05.2018 01:00:00 17,7 12,1 - - - 1012,3 -
22.05.2018 00:00:00 17,8 12,6 - - - 1012,7 -
21.05.2018 23:00:00 17,9 12,9 - - - 1012,9 -
21.05.2018 22:00:00 18,0 12,8 - - - 1012,9 -
21.05.2018 21:00:00 19,6 12,8 - - - 1012,6 -
21.05.2018 20:00:00 20,8 12,4 - - - 1012,5 0,0
21.05.2018 19:00:00 21,2 11,2 8 4 SSE 1012,4 -
21.05.2018 18:00:00 22,0 11,1 15 8 WSW 1012,5 -
21.05.2018 17:00:00 23,6 8,4 9 5 ENE 1012,4 -
21.05.2018 16:00:00 23,8 8,2 9 5 SW 1012,8 -
21.05.2018 15:00:00 23,7 9,6 5 3 WSW 1013,2 -
21.05.2018 14:00:00 23,5 10,8 9 5 W 1013,9 0,0
21.05.2018 13:00:00 23,0 10,7 8 4 NE 1014,7 -
21.05.2018 12:00:00 22,3 10,7 5 3 NE 1014,9 -
21.05.2018 11:00:00 21,6 12,1 5 3 NNE 1015,1 -
21.05.2018 10:00:00 20,6 13,7 4 2 NNE 1015,4 -
21.05.2018 09:00:00 19,0 12,9 - - - 1015,4 -
21.05.2018 08:00:00 17,4 13,2 - - - 1015,5 0,0
21.05.2018 07:00:00 15,6 12,5 - - - 1015,6 -
21.05.2018 06:00:00 14,5 11,2 - - - 1015,5 -
21.05.2018 05:00:00 15,3 12,8 - - - 1015,4 -
21.05.2018 04:00:00 15,7 12,9 - - - 1015,3 -
21.05.2018 03:00:00 15,8 11,7 - - - 1015,6 -
21.05.2018 02:00:00 16,4 11,7 - - - 1016,0 0,0
21.05.2018 01:00:00 16,5 11,6 - - - 1016,4 -
21.05.2018 00:00:00 16,6 11,9 - - - 1016,4 -
20.05.2018 23:00:00 16,9 10,7 - - - 1016,2 -
20.05.2018 22:00:00 17,7 10,3 - - - 1016,3 -
20.05.2018 21:00:00 19,4 10,1 - - - 1015,4 -
20.05.2018 20:00:00 20,8 9,9 4 2 WSW 1014,7 0,0
20.05.2018 19:00:00 22,0 9,5 9 5 N 1014,3 -
20.05.2018 18:00:00 22,7 8,7 9 5 NE 1014,5 -
20.05.2018 17:00:00 23,0 10,4 8 4 WSW 1014,8 -
20.05.2018 16:00:00 23,0 10,0 11 6 NW 1015,4 -
20.05.2018 15:00:00 23,0 9,4 11 6 ENE 1015,9 -
20.05.2018 14:00:00 22,5 10,9 9 5 W 1016,2 0,0
20.05.2018 13:00:00 22,2 11,5 9 5 NE 1016,7 -
20.05.2018 12:00:00 21,6 12,4 5 3 SSW 1017,1 -
20.05.2018 11:00:00 20,6 12,8 4 2 N 1017,1 -
20.05.2018 10:00:00 19,6 14,8 2 1 E 1017,2 -
20.05.2018 09:00:00 18,0 14,2 - - - 1017,3 -
20.05.2018 08:00:00 16,2 12,9 - - - 1017,2 0,0
20.05.2018 07:00:00 14,4 11,1 - - - 1016,9 -
20.05.2018 06:00:00 14,3 10,9 4 2 N 1016,8 -
20.05.2018 05:00:00 14,5 10,9 - - - 1016,6 -
20.05.2018 04:00:00 14,7 10,9 - - - 1016,7 -
20.05.2018 03:00:00 15,0 11,9 - - - 1017,1 -
20.05.2018 02:00:00 14,9 12,2 0 0 N 1017,0 0,0
20.05.2018 01:00:00 14,9 11,1 - - - 1017,0 -
20.05.2018 00:00:00 15,8 11,7 - - - 1017,1 -
19.05.2018 23:00:00 16,1 10,4 - - - 1016,8 -
19.05.2018 22:00:00 17,1 9,5 - - - 1016,1 -
19.05.2018 21:00:00 18,7 8,9 - - - 1015,7 -
19.05.2018 20:00:00 20,7 8,9 5 3 SE 1015,3 0,0
19.05.2018 19:00:00 21,9 9,0 8 4 ENE 1015,0 -
19.05.2018 18:00:00 22,5 9,2 8 4 E 1015,1 -
19.05.2018 17:00:00 22,8 9,2 8 4 SSW 1015,3 -
19.05.2018 16:00:00 23,3 8,5 4 2 WNW 1015,6 -
19.05.2018 15:00:00 23,0 9,0 8 4 ENE 1015,9 -
19.05.2018 14:00:00 22,8 10,9 5 3 SE 1016,3 0,0
19.05.2018 13:00:00 21,9 11,0 4 2 NNE 1017,0 -
19.05.2018 12:00:00 21,1 11,4 4 2 NW 1017,3 -
19.05.2018 11:00:00 20,3 12,5 4 2 NNW 1017,4 -
19.05.2018 10:00:00 18,2 14,2 2 1 E 1017,4 -
19.05.2018 09:00:00 16,9 14,3 - - - 1017,2 -
19.05.2018 08:00:00 14,6 12,9 - - - 1017,0 0,0
19.05.2018 07:00:00 12,1 10,5 0 0 N 1016,8 -
19.05.2018 06:00:00 12,4 10,8 0 0 N 1016,4 -
19.05.2018 05:00:00 12,6 11,0 0 0 N 1016,4 -
19.05.2018 04:00:00 13,4 11,8 0 0 N 1016,5 -
19.05.2018 03:00:00 13,8 12,2 0 0 N 1016,9 -
19.05.2018 02:00:00 14,0 11,8 0 0 N 1016,9 0,0
19.05.2018 01:00:00 14,7 11,4 0 0 N 1017,2 -
19.05.2018 00:00:00 15,4 11,0 0 0 N 1017,2 -
18.05.2018 23:00:00 16,6 10,8 2 1 E 1017,0 -
18.05.2018 22:00:00 17,6 10,9 - - - 1016,8 -
18.05.2018 21:00:00 18,4 10,4 - - - 1016,4 -
18.05.2018 20:00:00 20,7 10,7 0 0 N 1015,7 0,0
18.05.2018 19:00:00 21,5 11,2 4 2 N 1015,1 -
18.05.2018 18:00:00 21,6 10,7 2 1 SW 1015,2 -
18.05.2018 17:00:00 21,6 11,6 4 2 N 1015,6 -
18.05.2018 16:00:00 21,4 11,1 4 2 SE 1015,8 -
18.05.2018 15:00:00 21,2 11,2 4 2 WNW 1016,4 -
18.05.2018 14:00:00 21,5 10,9 4 2 S 1016,9 0,0
18.05.2018 13:00:00 20,8 12,2 4 2 SSE 1017,5 -
18.05.2018 12:00:00 19,5 12,2 4 2 ESE 1017,7 -
18.05.2018 11:00:00 18,1 14,1 2 1 E 1017,8 -
18.05.2018 10:00:00 16,4 14,5 0 0 N 1017,9 -
18.05.2018 09:00:00 14,8 13,1 - - - 1017,9 -
18.05.2018 08:00:00 12,9 11,3 - - - 1017,8 0,0
18.05.2018 07:00:00 10,2 8,6 0 0 N 1017,4 -
18.05.2018 06:00:00 10,1 8,5 0 0 N 1017,2 -
18.05.2018 05:00:00 10,3 8,7 0 0 N 1016,9 -
18.05.2018 04:00:00 11,1 9,5 0 0 N 1016,8 -
18.05.2018 03:00:00 11,5 9,9 0 0 N 1016,9 -
18.05.2018 02:00:00 11,7 10,1 0 0 N 1017,3 0,0
18.05.2018 01:00:00 11,8 10,2 0 0 N 1017,7 -
18.05.2018 00:00:00 12,5 10,9 0 0 N 1017,4 -
17.05.2018 23:00:00 13,2 11,6 0 0 N 1017,2 -
17.05.2018 22:00:00 13,8 12,0 0 0 N 1016,6 -

tt = Température de l'air
td = dewpoint
ff = Vitesse du vent
dd = Direction du vent
ppp = reduced air pressure
rr = Quantités de précipitations

stations d'obs. à proximité